sensor_id;sensor_type;location;lat;lon;timestamp;pressure;altitude;pressure_sealevel;temperature;humidity
42633;BME280;28261;53.304;-6.284;2023-09-07T00:01:15;101303.53;;;18.51;100.00
42633;BME280;28261;53.304;-6.284;2023-09-07T00:03:22;101307.91;;;18.52;100.00
42633;BME280;28261;53.304;-6.284;2023-09-07T00:05:29;101312.13;;;18.54;100.00
42633;BME280;28261;53.304;-6.284;2023-09-07T00:07:36;101303.09;;;18.55;100.00
42633;BME280;28261;53.304;-6.284;2023-09-07T00:09:40;101301.09;;;18.57;100.00
42633;BME280;28261;53.304;-6.284;2023-09-07T00:11:44;101290.09;;;18.60;100.00
42633;BME280;28261;53.304;-6.284;2023-09-07T00:13:48;101284.44;;;18.64;100.00
42633;BME280;28261;53.304;-6.284;2023-09-07T00:15:58;101281.47;;;18.67;100.00
42633;BME280;28261;53.304;-6.284;2023-09-07T00:18:03;101280.19;;;18.71;100.00
42633;BME280;28261;53.304;-6.284;2023-09-07T00:20:08;101279.78;;;18.75;100.00
42633;BME280;28261;53.304;-6.284;2023-09-07T00:22:16;101273.25;;;18.78;100.00
42633;BME280;28261;53.304;-6.284;2023-09-07T00:24:21;101266.88;;;18.79;99.95
42633;BME280;28261;53.304;-6.284;2023-09-07T00:26:25;101267.59;;;18.81;99.92
42633;BME280;28261;53.304;-6.284;2023-09-07T00:28:28;101264.94;;;18.81;99.52
42633;BME280;28261;53.304;-6.284;2023-09-07T00:30:32;101259.56;;;18.81;99.54
42633;BME280;28261;53.304;-6.284;2023-09-07T00:32:38;101250.50;;;18.82;99.26
42633;BME280;28261;53.304;-6.284;2023-09-07T00:34:42;101251.19;;;18.84;99.17
42633;BME280;28261;53.304;-6.284;2023-09-07T00:36:47;101241.16;;;18.86;99.06
42633;BME280;28261;53.304;-6.284;2023-09-07T00:38:52;101243.75;;;18.88;99.21
42633;BME280;28261;53.304;-6.284;2023-09-07T00:40:55;101248.81;;;18.91;98.87
42633;BME280;28261;53.304;-6.284;2023-09-07T00:42:59;101249.66;;;18.91;99.02
42633;BME280;28261;53.304;-6.284;2023-09-07T00:45:04;101246.97;;;18.91;98.90
42633;BME280;28261;53.304;-6.284;2023-09-07T00:47:08;101254.03;;;18.92;98.96
42633;BME280;28261;53.304;-6.284;2023-09-07T00:49:14;101260.13;;;18.94;98.71
42633;BME280;28261;53.304;-6.284;2023-09-07T00:51:18;101257.44;;;18.94;98.86
42633;BME280;28261;53.304;-6.284;2023-09-07T00:53:22;101265.22;;;18.98;98.56
42633;BME280;28261;53.304;-6.284;2023-09-07T00:55:27;101268.88;;;18.97;98.93
42633;BME280;28261;53.304;-6.284;2023-09-07T00:57:31;101258.13;;;18.97;98.85
42633;BME280;28261;53.304;-6.284;2023-09-07T00:59:37;101264.50;;;18.96;99.00
42633;BME280;28261;53.304;-6.284;2023-09-07T01:01:41;101256.72;;;18.92;99.29
42633;BME280;28261;53.304;-6.284;2023-09-07T01:03:45;101254.19;;;18.91;99.49
42633;BME280;28261;53.304;-6.284;2023-09-07T01:05:56;101255.16;;;18.90;99.29
42633;BME280;28261;53.304;-6.284;2023-09-07T01:08:09;101264.09;;;18.90;99.71
42633;BME280;28261;53.304;-6.284;2023-09-07T01:10:16;101258.72;;;18.90;99.40
42633;BME280;28261;53.304;-6.284;2023-09-07T01:12:22;101273.84;;;18.91;99.33
42633;BME280;28261;53.304;-6.284;2023-09-07T01:14:27;101271.88;;;18.93;99.50
42633;BME280;28261;53.304;-6.284;2023-09-07T01:16:33;101266.91;;;18.99;98.86
42633;BME280;28261;53.304;-6.284;2023-09-07T01:18:42;101258.41;;;19.03;98.58
42633;BME280;28261;53.304;-6.284;2023-09-07T01:20:52;101266.00;;;19.08;98.07
42633;BME280;28261;53.304;-6.284;2023-09-07T01:22:57;101263.06;;;19.11;97.46
42633;BME280;28261;53.304;-6.284;2023-09-07T01:25:05;101258.22;;;19.15;97.36
42633;BME280;28261;53.304;-6.284;2023-09-07T01:27:10;101253.72;;;19.15;97.19
42633;BME280;28261;53.304;-6.284;2023-09-07T01:29:16;101253.72;;;19.15;97.16
42633;BME280;28261;53.304;-6.284;2023-09-07T01:31:22;101264.47;;;19.15;97.04
42633;BME280;28261;53.304;-6.284;2023-09-07T01:33:27;101253.88;;;19.14;97.08
42633;BME280;28261;53.304;-6.284;2023-09-07T01:35:32;101253.97;;;19.12;97.04
42633;BME280;28261;53.304;-6.284;2023-09-07T01:37:38;101260.50;;;19.09;97.21
42633;BME280;28261;53.304;-6.284;2023-09-07T01:39:45;101257.28;;;19.06;97.34
42633;BME280;28261;53.304;-6.284;2023-09-07T01:41:49;101264.06;;;19.00;97.49
42633;BME280;28261;53.304;-6.284;2023-09-07T01:43:56;101274.25;;;18.97;98.12
42633;BME280;28261;53.304;-6.284;2023-09-07T01:46:01;101270.88;;;18.94;98.37
42633;BME280;28261;53.304;-6.284;2023-09-07T01:48:09;101261.13;;;18.93;98.39
42633;BME280;28261;53.304;-6.284;2023-09-07T01:50:14;101263.81;;;18.93;98.32
42633;BME280;28261;53.304;-6.284;2023-09-07T01:52:20;101273.00;;;18.91;98.74
42633;BME280;28261;53.304;-6.284;2023-09-07T01:54:24;101260.69;;;18.88;98.71
42633;BME280;28261;53.304;-6.284;2023-09-07T01:56:32;101267.16;;;18.86;99.11
42633;BME280;28261;53.304;-6.284;2023-09-07T01:58:39;101258.28;;;18.85;99.20
42633;BME280;28261;53.304;-6.284;2023-09-07T02:00:43;101263.22;;;18.80;99.60
42633;BME280;28261;53.304;-6.284;2023-09-07T02:02:49;101256.44;;;18.76;99.75
42633;BME280;28261;53.304;-6.284;2023-09-07T02:04:53;101255.03;;;18.72;100.00
42633;BME280;28261;53.304;-6.284;2023-09-07T02:06:57;101248.25;;;18.68;100.00
42633;BME280;28261;53.304;-6.284;2023-09-07T02:09:02;101246.84;;;18.64;100.00
42633;BME280;28261;53.304;-6.284;2023-09-07T02:11:06;101244.47;;;18.60;100.00
42633;BME280;28261;53.304;-6.284;2023-09-07T02:13:12;101244.88;;;18.56;100.00
42633;BME280;28261;53.304;-6.284;2023-09-07T02:15:16;101241.78;;;18.51;100.00
42633;BME280;28261;53.304;-6.284;2023-09-07T02:17:20;101247.16;;;18.51;100.00
42633;BME280;28261;53.304;-6.284;2023-09-07T02:19:25;101253.34;;;18.51;100.00
42633;BME280;28261;53.304;-6.284;2023-09-07T02:21:28;101247.69;;;18.54;100.00
42633;BME280;28261;53.304;-6.284;2023-09-07T02:23:33;101253.06;;;18.54;100.00
42633;BME280;28261;53.304;-6.284;2023-09-07T02:25:38;101243.31;;;18.53;100.00
42633;BME280;28261;53.304;-6.284;2023-09-07T02:27:41;101240.22;;;18.48;100.00
42633;BME280;28261;53.304;-6.284;2023-09-07T02:29:46;101242.06;;;18.38;100.00
42633;BME280;28261;53.304;-6.284;2023-09-07T02:31:51;101238.41;;;18.29;100.00
42633;BME280;28261;53.304;-6.284;2023-09-07T02:33:56;101236.69;;;18.18;100.00
42633;BME280;28261;53.304;-6.284;2023-09-07T02:36:00;101233.13;;;18.08;100.00
42633;BME280;28261;53.304;-6.284;2023-09-07T02:38:05;101231.28;;;17.99;100.00
42633;BME280;28261;53.304;-6.284;2023-09-07T02:40:08;101217.69;;;17.90;100.00
42633;BME280;28261;53.304;-6.284;2023-09-07T02:42:12;101220.94;;;17.84;100.00
42633;BME280;28261;53.304;-6.284;2023-09-07T02:44:15;101224.16;;;17.78;100.00
42633;BME280;28261;53.304;-6.284;2023-09-07T02:46:20;101226.97;;;17.76;100.00
42633;BME280;28261;53.304;-6.284;2023-09-07T02:48:24;101226.00;;;17.77;100.00
42633;BME280;28261;53.304;-6.284;2023-09-07T02:50:31;101231.94;;;17.81;100.00
42633;BME280;28261;53.304;-6.284;2023-09-07T02:52:36;101228.25;;;17.82;100.00
42633;BME280;28261;53.304;-6.284;2023-09-07T02:54:40;101227.28;;;17.83;100.00
42633;BME280;28261;53.304;-6.284;2023-09-07T02:56:44;101236.31;;;17.82;100.00
42633;BME280;28261;53.304;-6.284;2023-09-07T02:58:48;101231.38;;;17.77;100.00
42633;BME280;28261;53.304;-6.284;2023-09-07T03:00:52;101233.31;;;17.75;100.00
42633;BME280;28261;53.304;-6.284;2023-09-07T03:02:59;101233.22;;;17.77;100.00
42633;BME280;28261;53.304;-6.284;2023-09-07T03:05:03;101234.88;;;17.78;100.00
42633;BME280;28261;53.304;-6.284;2023-09-07T03:07:07;101229.13;;;17.73;100.00
42633;BME280;28261;53.304;-6.284;2023-09-07T03:09:11;101228.81;;;17.66;100.00
42633;BME280;28261;53.304;-6.284;2023-09-07T03:11:16;101228.66;;;17.58;100.00
42633;BME280;28261;53.304;-6.284;2023-09-07T03:13:23;101229.16;;;17.52;100.00
42633;BME280;28261;53.304;-6.284;2023-09-07T03:15:25;101226.31;;;17.43;100.00
42633;BME280;28261;53.304;-6.284;2023-09-07T03:17:29;101225.19;;;17.36;100.00
42633;BME280;28261;53.304;-6.284;2023-09-07T03:19:35;101240.66;;;17.33;100.00
42633;BME280;28261;53.304;-6.284;2023-09-07T03:21:39;101222.78;;;17.33;100.00
42633;BME280;28261;53.304;-6.284;2023-09-07T03:23:43;101223.63;;;17.34;100.00
42633;BME280;28261;53.304;-6.284;2023-09-07T03:25:49;101219.38;;;17.31;100.00
42633;BME280;28261;53.304;-6.284;2023-09-07T03:27:53;101221.34;;;17.29;100.00
42633;BME280;28261;53.304;-6.284;2023-09-07T03:29:55;101221.47;;;17.28;100.00
42633;BME280;28261;53.304;-6.284;2023-09-07T03:31:59;101224.41;;;17.24;100.00
42633;BME280;28261;53.304;-6.284;2023-09-07T03:34:03;101223.00;;;17.20;100.00
42633;BME280;28261;53.304;-6.284;2023-09-07T03:36:09;101218.19;;;17.14;100.00
42633;BME280;28261;53.304;-6.284;2023-09-07T03:38:16;101222.94;;;17.11;100.00
42633;BME280;28261;53.304;-6.284;2023-09-07T03:40:20;101220.69;;;17.06;100.00
42633;BME280;28261;53.304;-6.284;2023-09-07T03:42:24;101210.81;;;17.06;100.00
42633;BME280;28261;53.304;-6.284;2023-09-07T03:44:28;101210.66;;;17.08;100.00
42633;BME280;28261;53.304;-6.284;2023-09-07T03:46:31;101221.38;;;17.08;100.00
42633;BME280;28261;53.304;-6.284;2023-09-07T03:48:35;101215.19;;;17.07;100.00
42633;BME280;28261;53.304;-6.284;2023-09-07T03:50:43;101213.34;;;17.08;100.00
42633;BME280;28261;53.304;-6.284;2023-09-07T03:52:48;101215.19;;;17.07;100.00
42633;BME280;28261;53.304;-6.284;2023-09-07T03:54:54;101211.63;;;17.07;100.00
42633;BME280;28261;53.304;-6.284;2023-09-07T03:56:58;101205.59;;;17.05;100.00
42633;BME280;28261;53.304;-6.284;2023-09-07T03:59:02;101206.28;;;17.07;100.00
42633;BME280;28261;53.304;-6.284;2023-09-07T04:01:06;101208.81;;;17.08;100.00
42633;BME280;28261;53.304;-6.284;2023-09-07T04:03:10;101208.72;;;17.10;100.00
42633;BME280;28261;53.304;-6.284;2023-09-07T04:05:14;101207.00;;;17.09;100.00
42633;BME280;28261;53.304;-6.284;2023-09-07T04:07:17;101204.59;;;17.06;100.00
42633;BME280;28261;53.304;-6.284;2023-09-07T04:09:23;101203.03;;;17.03;100.00
42633;BME280;28261;53.304;-6.284;2023-09-07T04:11:27;101197.22;;;16.98;100.00
42633;BME280;28261;53.304;-6.284;2023-09-07T04:13:31;101193.81;;;16.96;100.00
42633;BME280;28261;53.304;-6.284;2023-09-07T04:15:41;101189.47;;;16.95;100.00
42633;BME280;28261;53.304;-6.284;2023-09-07T04:17:49;101186.94;;;16.94;100.00
42633;BME280;28261;53.304;-6.284;2023-09-07T04:19:53;101179.00;;;16.92;100.00
42633;BME280;28261;53.304;-6.284;2023-09-07T04:21:57;101176.22;;;16.94;100.00
42633;BME280;28261;53.304;-6.284;2023-09-07T04:24:01;101173.66;;;16.92;100.00
42633;BME280;28261;53.304;-6.284;2023-09-07T04:26:10;101172.31;;;16.86;100.00
42633;BME280;28261;53.304;-6.284;2023-09-07T04:28:13;101175.28;;;16.83;100.00
42633;BME280;28261;53.304;-6.284;2023-09-07T04:30:17;101171.88;;;16.81;100.00
42633;BME280;28261;53.304;-6.284;2023-09-07T04:32:20;101171.88;;;16.81;100.00
42633;BME280;28261;53.304;-6.284;2023-09-07T04:34:23;101184.88;;;16.86;100.00
42633;BME280;28261;53.304;-6.284;2023-09-07T04:36:29;101190.56;;;16.92;100.00
42633;BME280;28261;53.304;-6.284;2023-09-07T04:38:32;101194.41;;;17.00;100.00
42633;BME280;28261;53.304;-6.284;2023-09-07T04:40:35;101191.31;;;17.04;100.00
42633;BME280;28261;53.304;-6.284;2023-09-07T04:42:41;101188.25;;;17.09;100.00
42633;BME280;28261;53.304;-6.284;2023-09-07T04:44:44;101195.31;;;17.10;100.00
42633;BME280;28261;53.304;-6.284;2023-09-07T04:46:48;101181.38;;;17.16;100.00
42633;BME280;28261;53.304;-6.284;2023-09-07T04:48:54;101186.22;;;17.22;100.00
42633;BME280;28261;53.304;-6.284;2023-09-07T04:50:59;101180.28;;;17.29;100.00
42633;BME280;28261;53.304;-6.284;2023-09-07T04:53:02;101187.94;;;17.33;100.00
42633;BME280;28261;53.304;-6.284;2023-09-07T04:55:06;101198.09;;;17.39;100.00
42633;BME280;28261;53.304;-6.284;2023-09-07T04:57:10;101193.31;;;17.43;100.00
42633;BME280;28261;53.304;-6.284;2023-09-07T04:59:15;101190.38;;;17.46;100.00
42633;BME280;28261;53.304;-6.284;2023-09-07T05:01:19;101196.44;;;17.48;100.00
42633;BME280;28261;53.304;-6.284;2023-09-07T05:03:23;101191.34;;;17.45;100.00
42633;BME280;28261;53.304;-6.284;2023-09-07T05:05:27;101195.69;;;17.36;100.00
42633;BME280;28261;53.304;-6.284;2023-09-07T05:07:31;101199.03;;;17.29;100.00
42633;BME280;28261;53.304;-6.284;2023-09-07T05:09:33;101198.59;;;17.23;100.00
42633;BME280;28261;53.304;-6.284;2023-09-07T05:11:37;101198.34;;;17.27;100.00
42633;BME280;28261;53.304;-6.284;2023-09-07T05:13:40;101197.94;;;17.31;100.00
42633;BME280;28261;53.304;-6.284;2023-09-07T05:15:49;101193.03;;;17.36;100.00
42633;BME280;28261;53.304;-6.284;2023-09-07T05:17:54;101196.97;;;17.42;100.00
42633;BME280;28261;53.304;-6.284;2023-09-07T05:19:57;101192.06;;;17.47;100.00
42633;BME280;28261;53.304;-6.284;2023-09-07T05:22:01;101197.44;;;17.47;100.00
42633;BME280;28261;53.304;-6.284;2023-09-07T05:24:05;101195.88;;;17.45;100.00
42633;BME280;28261;53.304;-6.284;2023-09-07T05:26:08;101196.69;;;17.45;100.00
42633;BME280;28261;53.304;-6.284;2023-09-07T05:28:13;101199.97;;;17.49;100.00
42633;BME280;28261;53.304;-6.284;2023-09-07T05:30:17;101184.72;;;17.49;100.00
42633;BME280;28261;53.304;-6.284;2023-09-07T05:32:22;101187.25;;;17.51;100.00
42633;BME280;28261;53.304;-6.284;2023-09-07T05:34:26;101193.34;;;17.53;100.00
42633;BME280;28261;53.304;-6.284;2023-09-07T05:36:30;101192.50;;;17.52;100.00
42633;BME280;28261;53.304;-6.284;2023-09-07T05:38:34;101186.84;;;17.46;100.00
42633;BME280;28261;53.304;-6.284;2023-09-07T05:40:40;101180.06;;;17.41;100.00
42633;BME280;28261;53.304;-6.284;2023-09-07T05:42:44;101185.28;;;17.43;100.00
42633;BME280;28261;53.304;-6.284;2023-09-07T05:44:47;101182.31;;;17.46;100.00
42633;BME280;28261;53.304;-6.284;2023-09-07T05:46:51;101179.38;;;17.49;100.00
42633;BME280;28261;53.304;-6.284;2023-09-07T05:48:56;101182.63;;;17.53;100.00
42633;BME280;28261;53.304;-6.284;2023-09-07T05:51:00;101187.72;;;17.56;100.00
42633;BME280;28261;53.304;-6.284;2023-09-07T05:53:04;101184.06;;;17.57;100.00
42633;BME280;28261;53.304;-6.284;2023-09-07T05:55:08;101188.28;;;17.59;100.00
42633;BME280;28261;53.304;-6.284;2023-09-07T05:57:12;101187.16;;;17.62;100.00
42633;BME280;28261;53.304;-6.284;2023-09-07T05:59:16;101200.00;;;17.58;100.00
42633;BME280;28261;53.304;-6.284;2023-09-07T06:01:20;101198.72;;;17.53;100.00
42633;BME280;28261;53.304;-6.284;2023-09-07T06:03:25;101201.94;;;17.47;100.00
42633;BME280;28261;53.304;-6.284;2023-09-07T06:05:33;101199.66;;;17.42;100.00
42633;BME280;28261;53.304;-6.284;2023-09-07T06:07:43;101198.09;;;17.39;100.00
42633;BME280;28261;53.304;-6.284;2023-09-07T06:09:50;101201.63;;;17.40;100.00
42633;BME280;28261;53.304;-6.284;2023-09-07T06:11:54;101207.72;;;17.42;100.00
42633;BME280;28261;53.304;-6.284;2023-09-07T06:13:59;101204.28;;;17.40;100.00
42633;BME280;28261;53.304;-6.284;2023-09-07T06:16:03;101208.13;;;17.37;100.00
42633;BME280;28261;53.304;-6.284;2023-09-07T06:18:07;101206.56;;;17.35;100.00
42633;BME280;28261;53.304;-6.284;2023-09-07T06:20:11;101208.78;;;17.30;100.00
42633;BME280;28261;53.304;-6.284;2023-09-07T06:22:16;101211.19;;;17.33;100.00
42633;BME280;28261;53.304;-6.284;2023-09-07T06:24:20;101210.50;;;17.31;100.00
42633;BME280;28261;53.304;-6.284;2023-09-07T06:26:23;101212.91;;;17.34;100.00
42633;BME280;28261;53.304;-6.284;2023-09-07T06:28:27;101216.16;;;17.37;100.00
42633;BME280;28261;53.304;-6.284;2023-09-07T06:30:32;101221.81;;;17.44;100.00
42633;BME280;28261;53.304;-6.284;2023-09-07T06:32:37;101216.50;;;17.54;100.00
42633;BME280;28261;53.304;-6.284;2023-09-07T06:34:44;101213.41;;;17.58;100.00
42633;BME280;28261;53.304;-6.284;2023-09-07T06:36:48;101215.41;;;17.76;100.00
42633;BME280;28261;53.304;-6.284;2023-09-07T06:38:57;101223.97;;;18.01;100.00
42633;BME280;28261;53.304;-6.284;2023-09-07T06:41:01;101223.97;;;18.20;100.00
42633;BME280;28261;53.304;-6.284;2023-09-07T06:43:05;101220.00;;;18.24;100.00
42633;BME280;28261;53.304;-6.284;2023-09-07T06:45:09;101220.00;;;18.24;100.00
42633;BME280;28261;53.304;-6.284;2023-09-07T06:47:14;101225.66;;;18.31;100.00
42633;BME280;28261;53.304;-6.284;2023-09-07T06:49:18;101228.63;;;18.38;100.00
42633;BME280;28261;53.304;-6.284;2023-09-07T06:51:22;101219.16;;;18.43;100.00
42633;BME280;28261;53.304;-6.284;2023-09-07T06:53:28;101219.28;;;18.61;100.00
42633;BME280;28261;53.304;-6.284;2023-09-07T06:55:59;101221.09;;;18.71;100.00
42633;BME280;28261;53.304;-6.284;2023-09-07T06:58:06;101225.31;;;18.83;100.00
42633;BME280;28261;53.304;-6.284;2023-09-07T07:00:12;101228.16;;;18.91;100.00
42633;BME280;28261;53.304;-6.284;2023-09-07T07:02:19;101225.47;;;18.91;100.00
42633;BME280;28261;53.304;-6.284;2023-09-07T07:04:23;101235.53;;;18.89;100.00
42633;BME280;28261;53.304;-6.284;2023-09-07T07:06:27;101239.47;;;18.85;100.00
42633;BME280;28261;53.304;-6.284;2023-09-07T07:08:32;101245.28;;;18.71;100.00
42633;BME280;28261;53.304;-6.284;2023-09-07T07:10:35;101238.22;;;18.50;100.00
42633;BME280;28261;53.304;-6.284;2023-09-07T07:12:41;101243.19;;;18.45;100.00
42633;BME280;28261;53.304;-6.284;2023-09-07T07:14:59;101232.31;;;18.47;100.00
42633;BME280;28261;53.304;-6.284;2023-09-07T07:17:09;101243.47;;;18.52;100.00
42633;BME280;28261;53.304;-6.284;2023-09-07T07:19:16;101244.19;;;18.54;100.00
42633;BME280;28261;53.304;-6.284;2023-09-07T07:21:23;101247.16;;;18.51;100.00
42633;BME280;28261;53.304;-6.284;2023-09-07T07:23:32;101244.19;;;18.44;100.00
42633;BME280;28261;53.304;-6.284;2023-09-07T07:25:43;101238.38;;;18.39;100.00
42633;BME280;28261;53.304;-6.284;2023-09-07T07:27:54;101241.63;;;18.42;100.00
42633;BME280;28261;53.304;-6.284;2023-09-07T07:30:05;101232.19;;;18.48;100.00
42633;BME280;28261;53.304;-6.284;2023-09-07T07:32:18;101229.63;;;18.56;100.00
42633;BME280;28261;53.304;-6.284;2023-09-07T07:34:33;101228.88;;;18.64;100.00
42633;BME280;28261;53.304;-6.284;2023-09-07T07:36:53;101230.44;;;18.67;100.00
42633;BME280;28261;53.304;-6.284;2023-09-07T07:39:07;101221.97;;;18.71;100.00
42633;BME280;28261;53.304;-6.284;2023-09-07T07:41:24;101230.16;;;18.70;100.00
42633;BME280;28261;53.304;-6.284;2023-09-07T07:43:40;101221.41;;;18.68;100.00
42633;BME280;28261;53.304;-6.284;2023-09-07T07:45:55;101224.78;;;18.60;100.00
42633;BME280;28261;53.304;-6.284;2023-09-07T07:48:02;101232.31;;;18.56;100.00
42633;BME280;28261;53.304;-6.284;2023-09-07T07:50:08;101231.59;;;18.54;100.00
42633;BME280;28261;53.304;-6.284;2023-09-07T07:52:13;101225.94;;;18.57;100.00
42633;BME280;28261;53.304;-6.284;2023-09-07T07:54:18;101229.34;;;18.59;100.00
42633;BME280;28261;53.304;-6.284;2023-09-07T07:56:23;101236.09;;;18.64;100.00
42633;BME280;28261;53.304;-6.284;2023-09-07T07:58:30;101230.28;;;18.68;100.00
42633;BME280;28261;53.304;-6.284;2023-09-07T08:00:35;101237.66;;;18.66;100.00
42633;BME280;28261;53.304;-6.284;2023-09-07T08:02:40;101232.59;;;18.63;100.00
42633;BME280;28261;53.304;-6.284;2023-09-07T08:04:45;101229.31;;;18.69;100.00
42633;BME280;28261;53.304;-6.284;2023-09-07T08:06:50;101218.53;;;18.79;100.00
42633;BME280;28261;53.304;-6.284;2023-09-07T08:08:58;101211.88;;;18.83;100.00
42633;BME280;28261;53.304;-6.284;2023-09-07T08:11:03;101218.53;;;18.79;100.00
42633;BME280;28261;53.304;-6.284;2023-09-07T08:13:10;101224.50;;;18.73;100.00
42633;BME280;28261;53.304;-6.284;2023-09-07T08:15:14;101231.00;;;18.70;100.00
42633;BME280;28261;53.304;-6.284;2023-09-07T08:17:19;101221.09;;;18.71;100.00
42633;BME280;28261;53.304;-6.284;2023-09-07T08:19:24;101218.88;;;18.66;100.00
42633;BME280;28261;53.304;-6.284;2023-09-07T08:21:31;101210.94;;;18.74;100.00
42633;BME280;28261;53.304;-6.284;2023-09-07T08:23:36;101214.44;;;18.75;100.00
42633;BME280;28261;53.304;-6.284;2023-09-07T08:25:40;101214.56;;;18.83;100.00
42633;BME280;28261;53.304;-6.284;2023-09-07T08:27:50;101216.69;;;18.99;100.00
42633;BME280;28261;53.304;-6.284;2023-09-07T08:29:57;101215.22;;;19.15;100.00
42633;BME280;28261;53.304;-6.284;2023-09-07T08:32:01;101217.03;;;19.24;100.00
42633;BME280;28261;53.304;-6.284;2023-09-07T08:34:08;101202.84;;;19.32;100.00
42633;BME280;28261;53.304;-6.284;2023-09-07T08:36:13;101209.63;;;19.36;100.00
42633;BME280;28261;53.304;-6.284;2023-09-07T08:38:19;101208.63;;;19.37;100.00
42633;BME280;28261;53.304;-6.284;2023-09-07T08:40:26;101208.50;;;19.38;100.00
42633;BME280;28261;53.304;-6.284;2023-09-07T08:42:32;101209.63;;;19.36;100.00
42633;BME280;28261;53.304;-6.284;2023-09-07T08:44:37;101213.09;;;19.46;100.00
42633;BME280;28261;53.304;-6.284;2023-09-07T08:46:43;101208.94;;;19.61;100.00
42633;BME280;28261;53.304;-6.284;2023-09-07T08:48:47;101216.69;;;19.65;100.00
42633;BME280;28261;53.304;-6.284;2023-09-07T08:50:54;101213.13;;;19.74;100.00
42633;BME280;28261;53.304;-6.284;2023-09-07T08:52:59;101217.19;;;19.78;100.00
42633;BME280;28261;53.304;-6.284;2023-09-07T08:55:06;101213.47;;;19.89;100.00
42633;BME280;28261;53.304;-6.284;2023-09-07T08:57:11;101211.03;;;20.14;100.00
42633;BME280;28261;53.304;-6.284;2023-09-07T08:59:14;101211.81;;;20.50;100.00
42633;BME280;28261;53.304;-6.284;2023-09-07T09:01:18;101206.59;;;20.93;100.00
42633;BME280;28261;53.304;-6.284;2023-09-07T09:03:24;101207.66;;;21.35;100.00
42633;BME280;28261;53.304;-6.284;2023-09-07T09:05:28;101203.44;;;21.67;100.00
42633;BME280;28261;53.304;-6.284;2023-09-07T09:07:35;101197.34;;;21.73;100.00
42633;BME280;28261;53.304;-6.284;2023-09-07T09:09:39;101192.31;;;21.78;100.00
42633;BME280;28261;53.304;-6.284;2023-09-07T09:11:43;101196.72;;;21.87;100.00
42633;BME280;28261;53.304;-6.284;2023-09-07T09:13:48;101190.28;;;21.88;100.00
42633;BME280;28261;53.304;-6.284;2023-09-07T09:15:53;101192.50;;;21.93;100.00
42633;BME280;28261;53.304;-6.284;2023-09-07T09:17:57;101191.34;;;22.04;100.00
42633;BME280;28261;53.304;-6.284;2023-09-07T09:20:01;101192.03;;;22.14;100.00
42633;BME280;28261;53.304;-6.284;2023-09-07T09:22:08;101191.00;;;22.15;100.00
42633;BME280;28261;53.304;-6.284;2023-09-07T09:24:14;101186.97;;;22.11;100.00
42633;BME280;28261;53.304;-6.284;2023-09-07T09:26:18;101187.97;;;22.02;100.00
42633;BME280;28261;53.304;-6.284;2023-09-07T09:28:23;101181.88;;;21.83;100.00
42633;BME280;28261;53.304;-6.284;2023-09-07T09:30:30;101178.44;;;21.64;100.00
42633;BME280;28261;53.304;-6.284;2023-09-07T09:32:35;101184.16;;;21.53;100.00
42633;BME280;28261;53.304;-6.284;2023-09-07T09:34:43;101178.38;;;21.48;100.00
42633;BME280;28261;53.304;-6.284;2023-09-07T09:36:49;101187.09;;;21.42;100.00
42633;BME280;28261;53.304;-6.284;2023-09-07T09:38:54;101186.59;;;21.38;100.00
42633;BME280;28261;53.304;-6.284;2023-09-07T09:41:00;101186.06;;;21.35;100.00
42633;BME280;28261;53.304;-6.284;2023-09-07T09:43:06;101175.63;;;21.32;100.00
42633;BME280;28261;53.304;-6.284;2023-09-07T09:45:11;101184.72;;;21.30;100.00
42633;BME280;28261;53.304;-6.284;2023-09-07T09:47:14;101182.00;;;21.30;100.00
42633;BME280;28261;53.304;-6.284;2023-09-07T09:49:20;101189.63;;;21.35;100.00
42633;BME280;28261;53.304;-6.284;2023-09-07T09:51:24;101186.06;;;21.35;100.00
42633;BME280;28261;53.304;-6.284;2023-09-07T09:53:28;101187.44;;;21.39;100.00
42633;BME280;28261;53.304;-6.284;2023-09-07T09:55:34;101193.19;;;21.44;100.00
42633;BME280;28261;53.304;-6.284;2023-09-07T09:57:40;101185.63;;;21.47;100.00
42633;BME280;28261;53.304;-6.284;2023-09-07T09:59:45;101187.81;;;21.52;100.00
42633;BME280;28261;53.304;-6.284;2023-09-07T10:01:52;101184.53;;;21.67;100.00
42633;BME280;28261;53.304;-6.284;2023-09-07T10:03:59;101195.38;;;21.83;100.00
42633;BME280;28261;53.304;-6.284;2023-09-07T10:06:11;101197.06;;;22.01;100.00
42633;BME280;28261;53.304;-6.284;2023-09-07T10:08:18;101192.03;;;22.14;100.00
42633;BME280;28261;53.304;-6.284;2023-09-07T10:10:26;101197.09;;;22.25;100.00
42633;BME280;28261;53.304;-6.284;2023-09-07T10:12:29;101182.94;;;22.40;100.00
42633;BME280;28261;53.304;-6.284;2023-09-07T10:14:42;101179.84;;;22.68;100.00
42633;BME280;28261;53.304;-6.284;2023-09-07T10:16:49;101176.09;;;22.93;100.00
42633;BME280;28261;53.304;-6.284;2023-09-07T10:18:55;101169.25;;;23.22;99.06
42633;BME280;28261;53.304;-6.284;2023-09-07T10:20:59;101175.22;;;23.49;97.43
42633;BME280;28261;53.304;-6.284;2023-09-07T10:23:05;101178.16;;;23.71;96.53
42633;BME280;28261;53.304;-6.284;2023-09-07T10:25:19;101187.91;;;23.88;95.58
42633;BME280;28261;53.304;-6.284;2023-09-07T10:27:36;101178.44;;;24.07;94.82
42633;BME280;28261;53.304;-6.284;2023-09-07T10:29:44;101170.31;;;24.30;93.63
42633;BME280;28261;53.304;-6.284;2023-09-07T10:32:05;101176.03;;;24.50;92.20
42633;BME280;28261;53.304;-6.284;2023-09-07T10:34:11;101172.78;;;24.55;91.96
42633;BME280;28261;53.304;-6.284;2023-09-07T10:36:24;101169.22;;;24.55;91.19
42633;BME280;28261;53.304;-6.284;2023-09-07T10:38:32;101176.47;;;24.39;91.95
42633;BME280;28261;53.304;-6.284;2023-09-07T10:40:38;101178.44;;;24.30;92.13
42633;BME280;28261;53.304;-6.284;2023-09-07T10:42:43;101176.50;;;24.16;92.55